Thunder radar more information blitzortung!


Radar de pluja more information rain snow radar


Visita la nostra xarxa de llocs de meteo:

Template documentation
and downloads

And another site



No particular awareness of the weather is required.    There are no Weather-warnings

Pagina Historial Weather Underground text

Diari Resum Agost 25, 2017 Unitats:  Mètric    Imperial   Tant
« Previous Dia
SegĂźent Dia »
Diari Setmana Mensual Anual Personalitzada
  Maxima: Minima: Media:
Temperatura: 33.6 °C 18.8 °C 26.9 °C
Punt de rosada: 18.2 °C 14.3 °C 16.5 °C
Humitat: 80 % 34 % 55 %
Wind Speed: 24.1 km/h 0.0 km/h 7.1 km/h
RĂ fegues de vent: 24.1 km/h - -
Vent:- - SE
Pression baro: 1016.8 hPa 1013.8 hPa -
Precipitacions: 0.0 mm    
Historical Graphs
 
 
Dades de taula per Agost 25, 2017
Temps Temperatura Punt de rosada Pression baro Vent Wind Speed RĂ fegues de vent Humitat Rainfall Rate (Hourly)
00:00 20.5 °C 16.1 °C 1015.8 hPa Calm     76 % 0.0 mm
00:03 23.0 °C 15.3 °C 1015.8 hPa Calm     62 % 0.0 mm
00:08 23.0 °C 15.8 °C 1015.8 hPa Calm     64 % 0.0 mm
00:10 20.3 °C 15.9 °C 1015.8 hPa Calm   1.6 km/h 76 % 0.0 mm
00:20 20.1 °C 15.9 °C 1015.8 hPa Calm   1.6 km/h 77 % 0.0 mm
00:30 20.0 °C 15.8 °C 1015.8 hPa Calm     77 % 0.0 mm
00:40 19.7 °C 15.6 °C 1015.8 hPa Calm   1.6 km/h 77 % 0.0 mm
00:50 19.6 °C 15.4 °C 1015.8 hPa Calm     77 % 0.0 mm
01:00 19.6 °C 15.4 °C 1015.8 hPa Calm     77 % 0.0 mm
01:10 19.6 °C 15.4 °C 1015.8 hPa Calm     77 % 0.0 mm
01:20 19.6 °C 15.4 °C 1014.8 hPa Calm     77 % 0.0 mm
01:30 19.6 °C 15.4 °C 1015.8 hPa Calm   1.6 km/h 77 % 0.0 mm
01:40 19.5 °C 15.3 °C 1015.8 hPa Calm     77 % 0.0 mm
01:50 19.5 °C 15.3 °C 1015.8 hPa Calm     77 % 0.0 mm
02:00 19.4 °C 15.3 °C 1014.8 hPa Calm     77 % 0.0 mm
02:10 19.3 °C 15.2 °C 1014.8 hPa Calm     77 % 0.0 mm
02:20 19.2 °C 15.3 °C 1014.8 hPa Calm     78 % 0.0 mm
02:30 19.2 °C 15.3 °C 1014.8 hPa Calm   1.6 km/h 78 % 0.0 mm
02:40 19.1 °C 15.2 °C 1014.8 hPa Calm   1.6 km/h 78 % 0.0 mm
02:50 19.0 °C 15.1 °C 1015.8 hPa Calm     78 % 0.0 mm
03:00 19.0 °C 15.3 °C 1014.8 hPa Calm   1.6 km/h 79 % 0.0 mm
03:10 19.0 °C 15.3 °C 1014.8 hPa Calm   1.6 km/h 79 % 0.0 mm
03:20 18.9 °C 15.2 °C 1015.8 hPa Calm     79 % 0.0 mm
03:30 18.8 °C 15.3 °C 1015.8 hPa Calm     80 % 0.0 mm
03:40 18.8 °C 15.3 °C 1015.8 hPa Calm     80 % 0.0 mm
03:50 19.0 °C 15.3 °C 1015.8 hPa Calm   1.6 km/h 79 % 0.0 mm
04:00 19.3 °C 15.6 °C 1015.8 hPa Calm     79 % 0.0 mm
04:10 19.3 °C 15.4 °C 1015.8 hPa Calm     78 % 0.0 mm
04:20 19.3 °C 15.2 °C 1015.8 hPa WNW 1.6 km/h 1.6 km/h 77 % 0.0 mm
04:30 19.6 °C 15.7 °C 1015.8 hPa WSW 1.6 km/h 3.2 km/h 78 % 0.0 mm
04:40 19.6 °C 15.4 °C 1015.8 hPa SW 1.6 km/h 3.2 km/h 77 % 0.0 mm
05:00 21.0 °C 16.6 °C 1015.8 hPa Calm   3.2 km/h 76 % 0.0 mm
05:10 22.0 °C 16.5 °C 1015.8 hPa SSE 1.6 km/h 4.8 km/h 71 % 0.0 mm
05:20 22.0 °C 16.1 °C 1015.8 hPa ESE 3.2 km/h 3.2 km/h 69 % 0.0 mm
05:30 22.7 °C 16.3 °C 1015.8 hPa SE 1.6 km/h 3.2 km/h 67 % 0.0 mm
05:40 23.7 °C 16.5 °C 1015.8 hPa Calm   1.6 km/h 64 % 0.0 mm
10:44 26.4 °C 15.1 °C 1016.8 hPa ENE 7.4 km/h 7.4 km/h 50 % 0.0 mm
10:49 26.5 °C 14.9 °C 1016.8 hPa ENE 7.4 km/h 7.4 km/h 49 % 0.0 mm
10:54 26.4 °C 15.1 °C 1016.8 hPa ENE 3.7 km/h 3.7 km/h 50 % 0.0 mm
10:59 26.5 °C 15.2 °C 1016.8 hPa NNW 7.4 km/h 7.4 km/h 50 % 0.0 mm
11:04 27.0 °C 15.1 °C 1016.8 hPa SE 5.6 km/h 5.6 km/h 48 % 0.0 mm
11:09 27.1 °C 14.8 °C 1016.8 hPa ESE 7.4 km/h 7.4 km/h 47 % 0.0 mm
11:14 27.0 °C 15.1 °C 1016.8 hPa NE 7.4 km/h 7.4 km/h 48 % 0.0 mm
11:19 27.3 °C 15.3 °C 1016.8 hPa NNE 7.4 km/h 7.4 km/h 48 % 0.0 mm
11:24 27.6 °C 15.6 °C 1016.8 hPa NNE 7.4 km/h 7.4 km/h 48 % 0.0 mm
11:29 28.2 °C 16.2 °C 1016.8 hPa ENE 5.6 km/h 5.6 km/h 48 % 0.0 mm
11:34 28.1 °C 15.7 °C 1016.8 hPa ESE 9.3 km/h 9.3 km/h 47 % 0.0 mm
11:39 27.8 °C 15.4 °C 1016.8 hPa ENE 7.4 km/h 7.4 km/h 47 % 0.0 mm
11:44 28.1 °C 16.1 °C 1016.8 hPa ESE 6.1 km/h 6.1 km/h 48 % 0.0 mm
11:49 28.8 °C 16.7 °C 1016.8 hPa North 2.3 km/h   48 % 0.0 mm
11:54 28.9 °C 16.8 °C 1016.8 hPa WNW 3.9 km/h 3.9 km/h 48 % 0.0 mm
11:55 28.9 °C 16.8 °C 1016.8 hPa WNW 3.9 km/h 3.9 km/h 48 % 0.0 mm
12:00 29.2 °C 16.7 °C 1016.8 hPa WSW 6.1 km/h 6.1 km/h 47 % 0.0 mm
12:05 29.5 °C 16.7 °C 1016.8 hPa ESE 3.7 km/h 3.7 km/h 46 % 0.0 mm
12:10 30.0 °C 16.8 °C 1016.8 hPa North 3.7 km/h 3.7 km/h 45 % 0.0 mm
12:15 29.9 °C 17.0 °C 1016.8 hPa East 5.6 km/h 5.6 km/h 46 % 0.0 mm
12:20 29.8 °C 16.6 °C 1016.8 hPa North 9.3 km/h 9.3 km/h 45 % 0.0 mm
12:25 29.9 °C 17.0 °C 1016.8 hPa SSW 3.5 km/h 3.5 km/h 46 % 0.0 mm
12:30 30.3 °C 16.7 °C 1015.8 hPa ESE 11.1 km/h 11.1 km/h 44 % 0.0 mm
12:35 30.5 °C 16.9 °C 1015.8 hPa SSE 4.7 km/h   44 % 0.0 mm
12:40 30.6 °C 16.9 °C 1015.8 hPa ENE 7.4 km/h 7.4 km/h 44 % 0.0 mm
12:42 30.2 °C 16.6 °C 1015.8 hPa East 7.4 km/h 7.4 km/h 44 % 0.0 mm
12:47 30.3 °C 16.3 °C 1015.8 hPa East 11.1 km/h 11.1 km/h 43 % 0.0 mm
12:52 30.6 °C 16.6 °C 1015.8 hPa South 7.4 km/h 7.4 km/h 43 % 0.0 mm
12:57 30.8 °C 16.8 °C 1015.8 hPa NE 3.7 km/h 3.7 km/h 43 % 0.0 mm
13:02 30.9 °C 16.9 °C 1015.8 hPa NE 5.6 km/h 5.6 km/h 43 % 0.0 mm
13:03 30.7 °C 16.3 °C 1015.8 hPa ENE 7.6 km/h 7.6 km/h 42 % 0.0 mm
13:08 30.7 °C 15.9 °C 1015.8 hPa SW 9.3 km/h 9.3 km/h 41 % 0.0 mm
13:13 30.6 °C 16.6 °C 1014.8 hPa South 9.3 km/h 9.3 km/h 43 % 0.0 mm
13:18 31.1 °C 16.7 °C 1014.8 hPa East 13.0 km/h 13.0 km/h 42 % 0.0 mm
13:23 31.1 °C 17.1 °C 1014.8 hPa ENE 14.8 km/h 14.8 km/h 43 % 0.0 mm
13:28 31.1 °C 17.1 °C 1015.8 hPa ESE 13.0 km/h 13.0 km/h 43 % 0.0 mm
13:33 31.2 °C 17.1 °C 1015.8 hPa East 14.8 km/h 14.8 km/h 43 % 0.0 mm
13:38 31.3 °C 17.2 °C 1015.8 hPa ESE 17.5 km/h 17.5 km/h 43 % 0.0 mm
13:43 31.1 °C 17.1 °C 1015.8 hPa East 16.7 km/h 16.7 km/h 43 % 0.0 mm
13:48 31.4 °C 16.9 °C 1015.8 hPa SSE 11.1 km/h 11.1 km/h 42 % 0.0 mm
13:53 31.3 °C 17.2 °C 1015.8 hPa SSE 11.1 km/h 11.1 km/h 43 % 0.0 mm
13:58 31.5 °C 17.1 °C 1015.8 hPa East 16.7 km/h 16.7 km/h 42 % 0.0 mm
14:03 31.5 °C 17.1 °C 1015.8 hPa ESE 14.8 km/h 14.8 km/h 42 % 0.0 mm
14:08 31.4 °C 16.9 °C 1015.8 hPa NNE 13.0 km/h 13.0 km/h 42 % 0.0 mm
14:13 31.3 °C 16.8 °C 1015.8 hPa SSE 13.0 km/h 13.0 km/h 42 % 0.0 mm
14:15 31.3 °C 16.8 °C 1015.8 hPa ESE 16.7 km/h 16.7 km/h 42 % 0.0 mm
14:20 31.2 °C 16.8 °C 1015.8 hPa NNE 18.5 km/h 18.5 km/h 42 % 0.0 mm
14:25 31.1 °C 17.1 °C 1015.8 hPa ESE 14.0 km/h 14.0 km/h 43 % 0.0 mm
14:30 31.1 °C 17.1 °C 1015.8 hPa East 9.5 km/h 10.0 km/h 43 % 0.0 mm
14:35 31.1 °C 17.1 °C 1015.8 hPa ENE 13.0 km/h 13.0 km/h 43 % 0.0 mm
14:36 31.1 °C 17.1 °C 1015.8 hPa NNE 13.0 km/h 13.0 km/h 43 % 0.0 mm
14:41 30.7 °C 17.1 °C 1015.8 hPa East 16.7 km/h 16.7 km/h 44 % 0.0 mm
14:46 30.6 °C 16.9 °C 1015.8 hPa ENE 13.0 km/h 13.0 km/h 44 % 0.0 mm
14:51 30.7 °C 17.1 °C 1015.8 hPa ESE 16.7 km/h 16.7 km/h 44 % 0.0 mm
14:56 30.4 °C 16.8 °C 1015.8 hPa East 13.0 km/h 13.0 km/h 44 % 0.0 mm
15:01 30.6 °C 16.9 °C 1015.8 hPa ESE 18.5 km/h 18.5 km/h 44 % 0.0 mm
15:06 30.5 °C 16.9 °C 1015.8 hPa ESE 18.5 km/h 18.5 km/h 44 % 0.0 mm
15:11 30.7 °C 17.4 °C 1014.8 hPa East 15.1 km/h 15.1 km/h 45 % 0.0 mm
15:16 30.8 °C 17.5 °C 1014.8 hPa ENE 14.8 km/h 14.8 km/h 45 % 0.0 mm
15:21 30.4 °C 17.1 °C 1014.8 hPa East 24.1 km/h 24.1 km/h 45 % 0.0 mm
15:26 30.6 °C 17.3 °C 1014.8 hPa ESE 24.1 km/h 24.1 km/h 45 % 0.0 mm
15:31 30.8 °C 17.5 °C 1014.8 hPa SSE 14.8 km/h 14.8 km/h 45 % 0.0 mm
15:36 30.9 °C 17.6 °C 1014.8 hPa ENE 13.0 km/h 13.0 km/h 45 % 0.0 mm
15:41 31.0 °C 17.3 °C 1014.8 hPa South 11.1 km/h 11.1 km/h 44 % 0.0 mm
15:46 31.0 °C 17.3 °C 1014.8 hPa SSE 14.8 km/h 14.8 km/h 44 % 0.0 mm
15:51 31.6 °C 17.8 °C 1014.8 hPa SE 11.1 km/h 11.1 km/h 44 % 0.0 mm
15:56 31.6 °C 17.8 °C 1014.8 hPa ESE 7.4 km/h 7.4 km/h 44 % 0.0 mm
16:01 31.5 °C 17.4 °C 1014.8 hPa East 11.9 km/h 11.9 km/h 43 % 0.0 mm
16:06 31.5 °C 17.8 °C 1014.8 hPa East 7.4 km/h 7.4 km/h 44 % 0.0 mm
16:11 32.0 °C 17.8 °C 1015.8 hPa SSE 16.7 km/h 16.7 km/h 43 % 0.0 mm
16:16 32.5 °C 17.6 °C 1015.8 hPa SW 13.0 km/h 13.0 km/h 41 % 0.0 mm
16:21 32.5 °C 17.2 °C 1015.8 hPa SSE 5.6 km/h 5.6 km/h 40 % 0.0 mm
16:26 32.5 °C 17.6 °C 1015.8 hPa South 9.3 km/h 9.3 km/h 41 % 0.0 mm
16:31 32.6 °C 17.2 °C 1015.8 hPa NNW 7.4 km/h 7.4 km/h 40 % 0.0 mm
16:36 33.4 °C 17.6 °C 1015.8 hPa SE 5.6 km/h 5.6 km/h 39 % 0.0 mm
16:41 33.6 °C 17.3 °C 1014.8 hPa SSW 11.1 km/h 11.1 km/h 38 % 0.0 mm
16:46 33.6 °C 17.3 °C 1014.8 hPa West 10.3 km/h 10.3 km/h 38 % 0.0 mm
16:51 33.5 °C 16.8 °C 1014.8 hPa South 4.7 km/h 4.7 km/h 37 % 0.0 mm
16:56 33.4 °C 16.7 °C 1014.8 hPa South 5.8 km/h 5.8 km/h 37 % 0.0 mm
17:01 33.6 °C 16.9 °C 1014.8 hPa NE 9.3 km/h 9.3 km/h 37 % 0.0 mm
17:06 33.3 °C 16.2 °C 1014.8 hPa West 9.7 km/h 9.7 km/h 36 % 0.0 mm
17:11 33.2 °C 16.1 °C 1014.8 hPa SW 11.1 km/h 11.1 km/h 36 % 0.0 mm
17:16 32.8 °C 15.3 °C 1014.8 hPa SW 9.3 km/h 9.3 km/h 35 % 0.0 mm
17:21 32.8 °C 15.3 °C 1014.8 hPa SSW 9.3 km/h 9.3 km/h 35 % 0.0 mm
17:26 32.4 °C 14.5 °C 1014.8 hPa SSW 11.1 km/h 11.1 km/h 34 % 0.0 mm
17:31 32.3 °C 14.4 °C 1014.8 hPa SSW 9.3 km/h 9.3 km/h 34 % 0.0 mm
17:36 32.2 °C 14.8 °C 1014.8 hPa SW 7.4 km/h 7.4 km/h 35 % 0.0 mm
17:41 32.1 °C 14.7 °C 1014.8 hPa SW 14.8 km/h 14.8 km/h 35 % 0.0 mm
17:46 32.2 °C 14.8 °C 1014.8 hPa WSW 9.3 km/h 9.3 km/h 35 % 0.0 mm
17:51 32.2 °C 14.8 °C 1014.8 hPa SSW 7.4 km/h 7.4 km/h 35 % 0.0 mm
17:52 32.1 °C 14.7 °C 1014.8 hPa West 5.6 km/h 5.6 km/h 35 % 0.0 mm
17:57 31.8 °C 14.4 °C 1014.8 hPa SW 9.3 km/h 9.3 km/h 35 % 0.0 mm
18:02 31.9 °C 15.0 °C 1014.8 hPa SW 5.3 km/h 5.3 km/h 36 % 0.0 mm
18:07 31.7 °C 14.3 °C 1014.8 hPa WSW 9.3 km/h 9.3 km/h 35 % 0.0 mm
18:12 32.0 °C 14.6 °C 1014.8 hPa SW 5.6 km/h 5.6 km/h 35 % 0.0 mm
18:17 31.2 °C 14.3 °C 1014.8 hPa SE 9.3 km/h 9.3 km/h 36 % 0.0 mm
18:18 31.2 °C 14.3 °C 1014.8 hPa SW 9.3 km/h 9.3 km/h 36 % 0.0 mm
18:23 30.6 °C 15.4 °C 1014.8 hPa ENE 10.3 km/h 10.3 km/h 40 % 0.0 mm
18:28 30.1 °C 15.4 °C 1014.8 hPa ENE 12.2 km/h 12.2 km/h 41 % 0.0 mm
18:33 29.7 °C 15.4 °C 1014.8 hPa ESE 13.0 km/h 13.0 km/h 42 % 0.0 mm
18:38 29.7 °C 15.8 °C 1014.8 hPa SE 14.8 km/h 14.8 km/h 43 % 0.0 mm
18:43 29.6 °C 16.1 °C 1013.8 hPa NNE 14.8 km/h 14.8 km/h 44 % 0.0 mm
18:48 29.2 °C 15.7 °C 1013.8 hPa ENE 14.8 km/h 14.8 km/h 44 % 0.0 mm
18:53 28.9 °C 16.1 °C 1013.8 hPa ENE 16.7 km/h 16.7 km/h 46 % 0.0 mm
18:58 28.7 °C 16.3 °C 1013.8 hPa East 18.5 km/h 18.5 km/h 47 % 0.0 mm
19:03 28.6 °C 16.2 °C 1013.8 hPa ENE 11.9 km/h 11.9 km/h 47 % 0.0 mm
19:08 28.4 °C 16.3 °C 1013.8 hPa South 16.7 km/h 16.7 km/h 48 % 0.0 mm
19:13 28.3 °C 15.9 °C 1013.8 hPa ESE 22.2 km/h 22.2 km/h 47 % 0.0 mm
19:18 28.2 °C 16.2 °C 1013.8 hPa ESE 13.0 km/h 13.0 km/h 48 % 0.0 mm
19:23 28.1 °C 16.1 °C 1013.8 hPa SE 9.3 km/h 9.3 km/h 48 % 0.0 mm
19:28 28.2 °C 16.4 °C 1013.8 hPa ESE 5.6 km/h 5.6 km/h 49 % 0.0 mm
19:33 27.9 °C 16.2 °C 1013.8 hPa SSE 5.6 km/h 5.6 km/h 49 % 0.0 mm
19:38 27.7 °C 16.3 °C 1013.8 hPa SE 11.1 km/h 11.1 km/h 50 % 0.0 mm
19:43 27.5 °C 16.2 °C 1014.8 hPa SSE 9.3 km/h 9.3 km/h 50 % 0.0 mm
19:48 27.3 °C 16.3 °C 1014.8 hPa SE 9.3 km/h 9.3 km/h 51 % 0.0 mm
19:53 27.2 °C 16.2 °C 1014.8 hPa East 5.6 km/h 5.8 km/h 51 % 0.0 mm
19:58 27.0 °C 16.3 °C 1014.8 hPa SE 7.4 km/h 7.4 km/h 52 % 0.0 mm
20:03 26.9 °C 16.5 °C 1014.8 hPa ESE 9.3 km/h 9.3 km/h 53 % 0.0 mm
20:08 26.7 °C 16.3 °C 1014.8 hPa ENE 9.3 km/h 9.3 km/h 53 % 0.0 mm
20:13 26.5 °C 16.4 °C 1014.8 hPa East 5.6 km/h 5.6 km/h 54 % 0.0 mm
20:18 26.3 °C 16.6 °C 1014.8 hPa East 7.4 km/h 7.4 km/h 55 % 0.0 mm
20:23 26.2 °C 16.4 °C 1014.8 hPa ENE 11.1 km/h 11.1 km/h 55 % 0.0 mm
20:28 26.2 °C 16.4 °C 1014.8 hPa ESE 9.5 km/h 9.5 km/h 55 % 0.0 mm
20:30 23.2 °C 18.1 °C 1015.8 hPa NNE 1.6 km/h 3.2 km/h 73 % 0.0 mm
20:33 26.0 °C 16.3 °C 1014.8 hPa East 7.4 km/h 7.4 km/h 55 % 0.0 mm
20:38 25.9 °C 16.4 °C 1014.8 hPa East 9.3 km/h 9.3 km/h 56 % 0.0 mm
20:40 23.1 °C 18.0 °C 1015.8 hPa Calm   3.2 km/h 73 % 0.0 mm
20:43 25.7 °C 16.3 °C 1014.8 hPa SE 7.4 km/h 7.4 km/h 56 % 0.0 mm
20:48 25.6 °C 16.4 °C 1014.8 hPa East 6.9 km/h 6.9 km/h 57 % 0.0 mm
20:50 22.8 °C 17.9 °C 1015.8 hPa East 1.6 km/h 4.8 km/h 74 % 0.0 mm
20:53 25.5 °C 16.6 °C 1014.8 hPa NE 11.1 km/h 11.1 km/h 58 % 0.0 mm
20:58 25.3 °C 16.4 °C 1015.8 hPa ENE 9.3 km/h 9.3 km/h 58 % 0.0 mm
21:00 22.7 °C 17.6 °C 1014.8 hPa East 3.2 km/h 4.8 km/h 73 % 0.0 mm
21:03 25.2 °C 16.6 °C 1015.8 hPa East 5.0 km/h 5.0 km/h 59 % 0.0 mm
21:08 25.1 °C 16.5 °C 1015.8 hPa NE 3.7 km/h 3.7 km/h 59 % 0.0 mm
21:10 22.7 °C 17.8 °C 1014.8 hPa NE 1.6 km/h 3.2 km/h 74 % 0.0 mm
21:13 25.0 °C 16.7 °C 1014.8 hPa East 5.6 km/h 5.6 km/h 60 % 0.0 mm
21:18 25.0 °C 16.9 °C 1014.8 hPa NE 11.1 km/h 11.1 km/h 61 % 0.0 mm
21:20 22.7 °C 17.8 °C 1015.8 hPa NNE 3.2 km/h 3.2 km/h 74 % 0.0 mm
21:23 24.8 °C 17.0 °C 1014.8 hPa ESE 5.6 km/h 5.6 km/h 62 % 0.0 mm
21:28 24.8 °C 17.3 °C 1015.8 hPa East 9.3 km/h 9.3 km/h 63 % 0.0 mm
21:30 22.7 °C 17.8 °C 1015.8 hPa NE 1.6 km/h 4.8 km/h 74 % 0.0 mm
21:33 24.7 °C 17.4 °C 1015.8 hPa ESE 5.6 km/h 5.6 km/h 64 % 0.0 mm
21:38 24.7 °C 17.4 °C 1015.8 hPa ESE 5.6 km/h 5.6 km/h 64 % 0.0 mm
21:40 22.7 °C 17.8 °C 1015.8 hPa NE 3.2 km/h 4.8 km/h 74 % 0.0 mm
21:43 24.7 °C 17.4 °C 1015.8 hPa NE 2.6 km/h 2.6 km/h 64 % 0.0 mm
21:48 24.6 °C 17.3 °C 1015.8 hPa ENE 3.7 km/h 3.7 km/h 64 % 0.0 mm
21:50 22.6 °C 17.9 °C 1015.8 hPa NNE 1.6 km/h 3.2 km/h 75 % 0.0 mm
21:53 24.6 °C 17.6 °C 1015.8 hPa NNE 3.7 km/h 3.7 km/h 65 % 0.0 mm
21:58 24.6 °C 17.3 °C 1015.8 hPa NE 3.9 km/h 3.9 km/h 64 % 0.0 mm
22:00 22.5 °C 17.8 °C 1015.8 hPa Calm   1.6 km/h 75 % 0.0 mm
22:03 24.5 °C 17.5 °C 1015.8 hPa NE 3.7 km/h 3.7 km/h 65 % 0.0 mm
22:08 24.5 °C 17.5 °C 1015.8 hPa NE 5.6 km/h 5.6 km/h 65 % 0.0 mm
22:09 24.5 °C 17.5 °C 1015.8 hPa ENE 4.2 km/h 4.2 km/h 65 % 0.0 mm
22:10 22.3 °C 17.7 °C 1015.8 hPa NE 3.2 km/h 6.4 km/h 75 % 0.0 mm
22:14 24.5 °C 17.5 °C 1015.8 hPa NE 5.3 km/h 5.3 km/h 65 % 0.0 mm
22:19 24.4 °C 17.6 °C 1015.8 hPa East 3.7 km/h 3.7 km/h 66 % 0.0 mm
22:20 22.2 °C 17.8 °C 1014.8 hPa Calm   3.2 km/h 76 % 0.0 mm
22:24 24.4 °C 17.6 °C 1015.8 hPa ENE 3.7 km/h 3.7 km/h 66 % 0.0 mm
22:29 24.4 °C 17.9 °C 1016.8 hPa ENE 4.2 km/h 4.2 km/h 67 % 0.0 mm
22:30 22.4 °C 17.9 °C 1014.8 hPa North 3.2 km/h 4.8 km/h 76 % 0.0 mm
22:34 24.3 °C 18.0 °C 1016.8 hPa ENE 5.6 km/h 5.6 km/h 68 % 0.0 mm
22:39 24.3 °C 17.8 °C 1016.8 hPa ENE 3.7 km/h 3.7 km/h 67 % 0.0 mm
22:40 22.4 °C 18.2 °C 1014.8 hPa NNW 1.6 km/h 3.2 km/h 77 % 0.0 mm
22:44 24.3 °C 18.0 °C 1015.8 hPa East 3.7 km/h 3.7 km/h 68 % 0.0 mm
22:49 24.2 °C 18.2 °C 1015.8 hPa ESE 3.9 km/h 3.9 km/h 69 % 0.0 mm
22:50 22.4 °C 18.2 °C 1014.8 hPa NNW 1.6 km/h 3.2 km/h 77 % 0.0 mm
22:54 24.2 °C 17.9 °C 1015.8 hPa ESE 3.7 km/h 3.7 km/h 68 % 0.0 mm
23:00 24.0 °C 17.9 °C 1015.8 hPa ESE 5.6 km/h 5.6 km/h 69 % 0.0 mm
23:05 23.9 °C 17.9 °C 1015.8 hPa SE 3.9 km/h 3.9 km/h 69 % 0.0 mm
23:10 23.8 °C 17.8 °C 1015.8 hPa ESE 6.1 km/h 6.1 km/h 69 % 0.0 mm
23:15 23.7 °C 17.4 °C 1015.8 hPa SSE 3.7 km/h 3.7 km/h 68 % 0.0 mm
23:20 23.6 °C 17.3 °C 1015.8 hPa South 3.7 km/h 3.7 km/h 68 % 0.0 mm
23:25 23.6 °C 17.1 °C 1015.8 hPa SW 2.3 km/h 2.3 km/h 67 % 0.0 mm
23:30 23.5 °C 17.3 °C 1015.8 hPa SW 3.7 km/h 3.7 km/h 68 % 0.0 mm
23:35 23.3 °C 17.1 °C 1015.8 hPa West 2.3 km/h 2.3 km/h 68 % 0.0 mm
23:40 23.2 °C 16.9 °C 1015.8 hPa SW 5.3 km/h 5.3 km/h 68 % 0.0 mm
23:45 23.1 °C 16.9 °C 1016.8 hPa WSW 3.7 km/h 3.7 km/h 68 % 0.0 mm
23:50 23.2 °C 16.9 °C 1016.8 hPa WSW 3.7 km/h 3.7 km/h 68 % 0.0 mm
23:55 23.2 °C 17.2 °C 1016.8 hPa West 4.7 km/h 4.7 km/h 69 % 0.0 mm
Meteo Sesrovires
Elogis d' Weather Underground - 3.75 mb

Guio original per  Jim McMurry - jmcmurry@mwt.net Adaptat per a la plantilla per  Wim van der Kuil - Leuven-Template.eu

Trobareu la nostra informacio del temps tambe a:

Weather Underground

AWEKAS